地図

経路データ

SID SEASON NUMBER BASIN SUBBASIN NAME ISO_TIME NATURE LAT LON WMO_WIND WMO_PRES WMO_AGENCY TRACK_TYPE DIST2LAND LANDFALL IFLAG USA_AGENCY USA_ATCF_ID USA_LAT USA_LON USA_RECORD USA_STATUS USA_WIND USA_PRES USA_SSHS USA_R34_NE USA_R34_SE USA_R34_SW USA_R34_NW USA_R50_NE USA_R50_SE USA_R50_SW USA_R50_NW USA_R64_NE USA_R64_SE USA_R64_SW USA_R64_NW USA_POCI USA_ROCI USA_RMW USA_EYE TOKYO_LAT TOKYO_LON TOKYO_GRADE TOKYO_WIND TOKYO_PRES TOKYO_R50_DIR TOKYO_R50_LONG TOKYO_R50_SHORT TOKYO_R30_DIR TOKYO_R30_LONG TOKYO_R30_SHORT TOKYO_LAND CMA_LAT CMA_LON CMA_CAT CMA_WIND CMA_PRES HKO_LAT HKO_LON HKO_CAT HKO_WIND HKO_PRES NEWDELHI_LAT NEWDELHI_LON NEWDELHI_GRADE NEWDELHI_WIND NEWDELHI_PRES NEWDELHI_CI NEWDELHI_DP NEWDELHI_POCI REUNION_LAT REUNION_LON REUNION_TYPE REUNION_WIND REUNION_PRES REUNION_TNUM REUNION_CI REUNION_RMW REUNION_R34_NE REUNION_R34_SE REUNION_R34_SW REUNION_R34_NW REUNION_R50_NE REUNION_R50_SE REUNION_R50_SW REUNION_R50_NW REUNION_R64_NE REUNION_R64_SE REUNION_R64_SW REUNION_R64_NW BOM_LAT BOM_LON BOM_TYPE BOM_WIND BOM_PRES BOM_TNUM BOM_CI BOM_RMW BOM_R34_NE BOM_R34_SE BOM_R34_SW BOM_R34_NW BOM_R50_NE BOM_R50_SE BOM_R50_SW BOM_R50_NW BOM_R64_NE BOM_R64_SE BOM_R64_SW BOM_R64_NW BOM_ROCI BOM_POCI BOM_EYE BOM_POS_METHOD BOM_PRES_METHOD NADI_LAT NADI_LON NADI_CAT NADI_WIND NADI_PRES WELLINGTON_LAT WELLINGTON_LON WELLINGTON_WIND WELLINGTON_PRES DS824_LAT DS824_LON DS824_STAGE DS824_WIND DS824_PRES TD9636_LAT TD9636_LON TD9636_STAGE TD9636_WIND TD9636_PRES TD9635_LAT TD9635_LON TD9635_WIND TD9635_PRES TD9635_ROCI NEUMANN_LAT NEUMANN_LON NEUMANN_CLASS NEUMANN_WIND NEUMANN_PRES MLC_LAT MLC_LON MLC_CLASS MLC_WIND MLC_PRES USA_GUST BOM_GUST BOM_GUST_PER REUNION_GUST REUNION_GUST_PER USA_SEAHGT USA_SEARAD_NE USA_SEARAD_SE USA_SEARAD_SW USA_SEARAD_NW STORM_SPEED STORM_DIR
1995348S15135 1996 97 SI WA GERTIE 1995-12-14 00:00:00 TS -15.5000 134.800 main 0 0 O___________O_ jtwc_sh SH041996 -15.5000 134.800 15 -1 -15.5000 134.800 TC 15 17 19
1995348S15135 1996 97 SP EA GERTIE 1995-12-14 03:00:00 TS -14.6853 135.083 main 0 0 P___________P_ SH041996 -14.6853 135.083 15 -1 -14.6853 135.083 TC 15 17 14
1995348S15135 1996 97 SP EA GERTIE 1995-12-14 06:00:00 TS -13.9000 135.200 main 0 0 O___________O_ jtwc_sh SH041996 -13.9000 135.200 15 -1 -13.9000 135.200 TC 15 15 358
1995348S15135 1996 97 SP EA GERTIE 1995-12-14 09:00:00 TS -13.1821 135.015 main 0 0 P___________P_ SH041996 -13.1821 135.015 15 -1 -13.1821 135.015 TC 15 15 332
1995348S15135 1996 97 SI WA GERTIE 1995-12-14 12:00:00 TS -12.6000 134.500 main 0 0 O___________O_ jtwc_sh SH041996 -12.6000 134.500 15 -1 -12.6000 134.500 TC 15 17 307
1995348S15135 1996 97 SI WA GERTIE 1995-12-14 15:00:00 TS -12.1681 133.652 main 0 0 P___________P_ SH041996 -12.1681 133.652 17 -1 -12.1681 133.652 TC 17 19 292
1995348S15135 1996 97 SI WA GERTIE 1995-12-14 18:00:00 TS -11.9000 132.700 main 0 0 O___________O_ jtwc_sh SH041996 -11.9000 132.700 20 -1 -11.9000 132.700 TC 20 17 284
1995348S15135 1996 97 SI WA GERTIE 1995-12-14 21:00:00 TS -11.7473 131.940 main 31 0 P___________P_ SH041996 -11.7473 131.940 20 -1 -11.7473 131.940 TC 20 14 278
1995348S15135 1996 97 SI WA GERTIE 1995-12-15 00:00:00 TS -11.7000 131.300 main 0 0 O___________O_ jtwc_sh SH041996 -11.7000 131.300 20 -1 -11.7000 131.300 TC 20 12 273
1995348S15135 1996 97 SI WA GERTIE 1995-12-15 03:00:00 TS -11.6848 130.763 main 0 0 P___________P_ SH041996 -11.6848 130.763 20 -1 -11.6848 130.763 TC 20 10 270
1995348S15135 1996 97 SI WA GERTIE 1995-12-15 06:00:00 TS -11.7000 130.300 main 0 0 O___________O_ jtwc_sh SH041996 -11.7000 130.300 20 -1 -11.7000 130.300 TC 20 9 269
1995348S15135 1996 97 SI WA GERTIE 1995-12-15 09:00:00 TS -11.6999 129.835 main 34 34 P___________P_ SH041996 -11.6999 129.835 20 -1 -11.6999 129.835 TC 20 9 270
1995348S15135 1996 97 SI WA GERTIE 1995-12-15 12:00:00 TS -11.7000 129.400 main 77 77 O___________O_ jtwc_sh SH041996 -11.7000 129.400 20 -1 -11.7000 129.400 TC 20 8 270
1995348S15135 1996 97 SI WA GERTIE 1995-12-15 15:00:00 TS -11.6999 128.993 main 120 120 P___________P_ SH041996 -11.6999 128.993 22 -1 -11.6999 128.993 TC 22 8 270
1995348S15135 1996 97 SI WA GERTIE 1995-12-15 18:00:00 TS -11.7000 128.600 main 163 163 O___________O_ jtwc_sh SH041996 -11.7000 128.600 25 -1 -11.7000 128.600 TC 25 8 271
1995348S15135 1996 97 SI WA GERTIE 1995-12-15 21:00:00 TS -11.6850 128.192 main 207 207 P___________P_ SH041996 -11.6850 128.192 25 -1 -11.6850 128.192 TC 25 8 270
1995348S15135 1996 97 SI WA GERTIE 1995-12-16 00:00:00 TS -11.7000 127.800 main 247 228 O___________O_ jtwc_sh SH041996 -11.7000 127.800 25 -1 -11.7000 127.800 TC 25 7 262
1995348S15135 1996 97 SI WA GERTIE 1995-12-16 03:00:00 TS -11.7850 127.435 main 226 212 P___________P_ SH041996 -11.7850 127.435 25 -1 -11.7850 127.435 TC 25 7 254
1995348S15135 1996 97 SI WA GERTIE 1995-12-16 06:00:00 TS -11.9000 127.100 main 212 201 O___________O_ jtwc_sh SH041996 -11.9000 127.100 25 -1 -11.9000 127.100 TC 25 7 251
1995348S15135 1996 97 SI WA GERTIE 1995-12-16 09:00:00 TS -11.9999 126.792 main 201 193 P___________P_ SH041996 -11.9999 126.792 25 -1 -11.9999 126.792 TC 25 6 251
1995348S15135 1996 97 SI WA GERTIE 1995-12-16 12:00:00 TS -12.1000 126.500 main 195 190 O___________O_ jtwc_sh SH041996 -12.1000 126.500 25 -1 -12.1000 126.500 TC 25 6 253
1995348S15135 1996 97 SI WA GERTIE 1995-12-16 15:00:00 TS -12.1775 126.192 main 194 190 P___________P_ SH041996 -12.1775 126.192 25 -1 -12.1775 126.192 TC 25 6 251
1995348S15135 1996 97 SI WA GERTIE 1995-12-16 18:00:00 TS -12.3000 125.900 main 191 173 O___________O_ jtwc_sh SH041996 -12.3000 125.900 25 -1 -12.3000 125.900 TC 25 6 236
1995348S15135 1996 97 SI WA GERTIE 1995-12-16 21:00:00 TS -12.5350 125.643 main 176 154 P___________P_ SH041996 -12.5350 125.643 27 -1 -12.5350 125.643 TC 27 7 224
1995348S15135 1996 97 SI WA GERTIE 1995-12-17 00:00:00 TS -12.8000 125.400 main 154 148 O___________O_ jtwc_sh SH041996 -12.8000 125.400 30 -1 -12.8000 125.400 TC 30 7 226
1995348S15135 1996 97 SI WA GERTIE 1995-12-17 03:00:00 TS -13.0000 125.142 main 155 144 P___________P_ SH041996 -13.0000 125.142 30 -1 -13.0000 125.142 TC 30 6 231
1995348S15135 1996 97 SI WA GERTIE 1995-12-17 06:00:00 TS -13.2000 124.900 main 144 135 O___________O_ jtwc_sh SH041996 -13.2000 124.900 30 -1 -13.2000 124.900 TC 30 5 221
1995348S15135 1996 97 SI WA GERTIE 1995-12-17 07:00:00 TS -13.2643 124.909 25 1000 bom main 135 125 P_____O_____P_ SH041996 -13.2723 124.835 30 -1 -13.2000 125.500 20 25 1000 1.50000 80 3 5 -13.2723 124.835 TC 30 4 201
1995348S15135 1996 97 SI WA GERTIE 1995-12-17 09:00:00 TS -13.4086 124.819 main 132 124 P_____P_____P_ SH041996 -13.4274 124.715 30 -1 -13.3334 125.233 20 25 1000 80 -13.4274 124.715 TC 30 5 211
1995348S15135 1996 97 SI WA GERTIE 1995-12-17 10:00:00 TS -13.4815 124.774 25 1000 bom main 124 124 P_____O_____P_ SH041996 -13.5120 124.651 30 -1 -13.4000 125.100 20 25 1000 1.50000 80 3 5 -13.5120 124.651 TC 30 6 221
1995348S15135 1996 97 SI WA GERTIE 1995-12-17 12:00:00 TS -13.6444 124.611 main 129 119 O_____P_____O_ jtwc_sh SH041996 -13.7000 124.500 30 -1 -13.5333 124.833 20 25 1000 91 -13.7000 124.500 TC 30 7 226
1995348S15135 1996 97 SI WA GERTIE 1995-12-17 13:00:00 TS -13.7386 124.502 25 1000 bom main 125 116 P_____O_____P_ SH041996 -13.8079 124.403 30 -1 -13.6000 124.700 20 25 1000 1.50000 97 3 5 -13.8079 124.403 TC 30 9 229
1995348S15135 1996 97 SI WA GERTIE 1995-12-17 15:00:00 TS -13.9368 124.264 main 124 124 P_____P_____P_ SH041996 -14.0425 124.180 30 -1 -13.7254 124.433 20 25 1000 97 -14.0425 124.180 TC 30 9 229
1995348S15135 1996 97 SI WA GERTIE 1995-12-17 16:00:00 TS -14.0425 124.138 25 1000 bom main 136 131 P_____O_____P_ SH041996 -14.1637 124.058 30 -1 -13.8000 124.300 20 25 1000 1.50000 97 3 5 -14.1637 124.058 TC 30 10 228
1995348S15135 1996 97 SI WA GERTIE 1995-12-17 18:00:00 TS -14.2648 123.883 main 139 139 O_____P_____O_ jtwc_sh SH041996 -14.4000 123.800 30 -1 -13.9945 124.049 20 25 998 103 -14.4000 123.800 TC 30 10 229
1995348S15135 1996 97 SI WA GERTIE 1995-12-17 19:00:00 TS -14.3722 123.748 25 998 bom main 148 147 P_____O_____P_ SH041996 -14.5083 123.672 30 -1 -14.1000 123.900 20 25 998 2.00000 107 3 5 -14.5083 123.672 TC 30 11 234
1995348S15135 1996 97 SI WA GERTIE 1995-12-17 21:00:00 TS -14.5767 123.439 main 155 155 P_____P_____P_ SH041996 -14.7150 123.407 32 -1 -14.3000 123.503 20 28 998 118 -14.7150 123.407 TC 32 11 236
1995348S15135 1996 97 SI WA GERTIE 1995-12-17 22:00:00 TS -14.6755 123.281 30 998 bom main 155 155 P_____O_____P_ SH041996 -14.8133 123.272 33 -1 -14.4000 123.300 20 30 998 2.00000 124 3 5 -14.8133 123.272 TC 33 11 237
1995348S15135 1996 97 SI WA GERTIE 1995-12-18 00:00:00 TS -14.8667 122.984 main 163 163 O_____P_____O_ jtwc_sh SH041996 -15.0000 123.000 35 0 -14.6000 122.953 20 30 998 130 -15.0000 123.000 TC 35 10 236
1995348S15135 1996 97 SI WA GERTIE 1995-12-18 01:00:00 TS -14.9593 122.844 30 998 bom main 165 158 P_____O_____P_ SH041996 -15.0890 122.867 35 0 -14.7000 122.800 20 30 998 2.50000 134 3 5 -15.0890 122.867 TC 35 10 236
1995348S15135 1996 97 SI WA GERTIE 1995-12-18 03:00:00 TS -15.1383 122.573 main 159 149 P_____P_____P_ SH041996 -15.2574 122.600 35 0 -14.9000 122.520 20 33 996 134 -15.2574 122.600 TC 35 9 235
1995348S15135 1996 97 SI WA GERTIE 1995-12-18 04:00:00 TS -15.2258 122.444 35 995 bom main 155 138 P_____O_____P_ SH041996 -15.3387 122.467 35 0 -15.0000 122.400 30 35 995 3.00000 134 3 5 -15.3387 122.467 TC 35 9 234
1995348S15135 1996 97 SI WA GERTIE 1995-12-18 06:00:00 TS -15.4026 122.198 main 144 140 O_____P_____O_ jtwc_sh SH041996 -15.5000 122.200 35 0 -15.2079 122.195 30 38 991 134 -15.5000 122.200 TC 35 9 234
1995348S15135 1996 97 SI WA GERTIE 1995-12-18 07:00:00 TS -15.4872 122.071 40 990 bom main 140 139 P_____O_____P_ SH041996 -15.5807 122.056 35 0 -15.3000 122.100 30 40 990 3.00000 134 3 5 -15.5807 122.056 TC 35 9 237
1995348S15135 1996 97 SI WA GERTIE 1995-12-18 09:00:00 TS -15.6413 121.811 main 154 146 P_____P_____P_ SH041996 -15.7426 121.770 35 0 -15.4388 121.892 30 46 986 134 -15.7426 121.770 TC 35 9 238
1995348S15135 1996 97 SI WA GERTIE 1995-12-18 10:00:00 TS -15.7170 121.690 50 985 bom main 154 154 P_____O_____P_ SH041996 -15.8255 121.635 35 0 -15.5000 121.800 30 50 985 3.50000 134 3 5 -15.8255 121.635 TC 35 8 233
1995348S15135 1996 97 SI WA GERTIE 1995-12-18 12:00:00 TS -15.8751 121.487 main 154 154 O_____P_____O_ jtwc_sh SH041996 -16.0000 121.400 35 0 -15.6254 121.661 30 50 985 134 -16.0000 121.400 TC 35 7 228
1995348S15135 1996 97 SI WA GERTIE 1995-12-18 13:00:00 TS -15.9628 121.405 50 985 bom main 154 154 P_____O_____P_ SH041996 -16.0942 121.308 35 0 -15.7000 121.600 30 50 985 3.50000 134 3 5 -16.0942 121.308 TC 35 7 217
1995348S15135 1996 97 SI WA GERTIE 1995-12-18 15:00:00 TS -16.1598 121.264 main 146 146 P_____P_____P_ SH041996 -16.2924 121.162 35 0 -15.8946 121.467 30 53 981 134 -16.2924 121.162 TC 35 7 213
1995348S15135 1996 97 SI WA GERTIE 1995-12-18 16:00:00 TS -16.2630 121.202 55 980 bom main 147 147 P_____O_____P_ SH041996 -16.3945 121.104 35 0 -16.0000 121.400 30 55 980 4.00000 134 3 5 -16.3945 121.104 TC 35 7 208
1995348S15135 1996 97 SI WA GERTIE 1995-12-18 18:00:00 TS -16.4614 121.092 main 144 144 O_____P_____O_ jtwc_sh SH041996 -16.6000 121.000 35 0 -16.1842 121.275 30 55 980 134 -16.6000 121.000 TC 35 7 209
1995348S15135 1996 97 SI WA GERTIE 1995-12-18 19:00:00 TS -16.5667 121.030 55 980 bom main 149 144 P_____O_____P_ SH041996 -16.7000 120.944 38 0 -16.3000 121.200 30 55 980 4.00000 134 3 5 -16.7000 120.944 TC 38 8 209
1995348S15135 1996 97 SI WA GERTIE 1995-12-18 21:00:00 TS -16.8048 120.894 main 149 145 P_____P_____P_ SH041996 -16.9000 120.842 45 0 -16.6146 120.998 30 58 976 134 -16.9000 120.842 TC 45 8 207
1995348S15135 1996 97 SI WA GERTIE 1995-12-18 22:00:00 TS -16.9333 120.830 60 975 bom main 155 148 P_____O_____P_ SH041996 -17.0000 120.794 48 0 -16.8000 120.900 30 60 975 4.00000 134 18 6 5 -17.0000 120.794 TC 48 9 202
1995348S15135 1996 97 SI WA GERTIE 1995-12-19 00:00:00 TS -17.2008 120.726 main 155 152 O_____P_____O_ jtwc_sh SH041996 -17.2000 120.700 55 0 -17.2024 120.777 30 60 975 134 -17.2000 120.700 TC 55 9 201
1995348S15135 1996 97 SI WA GERTIE 1995-12-19 01:00:00 TS -17.3316 120.667 60 975 bom main 152 150 P_____O_____P_ SH041996 -17.2974 120.650 55 0 -17.4000 120.700 30 60 975 4.00000 134 15 6 5 -17.2974 120.650 TC 55 9 208
1995348S15135 1996 97 SI WA GERTIE 1995-12-19 03:00:00 TS -17.5798 120.517 main 169 161 P_____P_____P_ SH041996 -17.4925 120.550 55 0 -17.7546 120.452 30 63 971 134 -17.4925 120.550 TC 55 9 212
1995348S15135 1996 97 SI WA GERTIE 1995-12-19 04:00:00 TS -17.6947 120.433 65 970 bom main 170 163 P_____O_____P_ SH041996 -17.5921 120.500 55 0 -17.9000 120.300 40 65 970 4.50000 134 12 6 5 -17.5921 120.500 TC 55 9 218
1995348S15135 1996 97 SI WA GERTIE 1995-12-19 06:00:00 TS -17.9115 120.242 main 176 172 O_____P_____O_ jtwc_sh SH041996 -17.8000 120.400 55 0 -18.1346 119.925 40 65 970 134 -17.8000 120.400 TC 55 8 219
1995348S15135 1996 97 SI WA GERTIE 1995-12-19 07:00:00 TS -18.0091 120.160 65 970 bom main 172 174 P_____O_____P_ SH041996 -17.9136 120.340 55 0 -18.2000 119.800 40 65 970 4.50000 134 15 6 5 -17.9136 120.340 TC 55 6 210
1995348S15135 1996 97 SI WA GERTIE 1995-12-19 09:00:00 TS -18.1668 120.091 main 174 174 P_____P_____P_ SH041996 -18.1500 120.220 55 0 -18.2005 119.834 40 68 966 134 -18.1500 120.220 TC 55 5 199
1995348S15135 1996 97 SI WA GERTIE 1995-12-19 10:00:00 TS -18.2461 120.079 70 965 bom main 174 158 P_____O_____P_ SH041996 -18.2692 120.169 55 0 -18.2000 119.900 40 70 965 4.50000 134 15 6 5 -18.2692 120.169 TC 55 6 188
1995348S15135 1996 97 SI WA GERTIE 1995-12-19 12:00:00 TS -18.4382 120.058 main 158 148 O_____P_____O_ jtwc_sh SH041996 -18.5000 120.100 55 0 -18.3146 119.975 40 73 965 134 -18.5000 120.100 TC 55 6 0
1995348S15135 1996 97 SI WA GERTIE 1995-12-19 13:00:00 TS -18.5354 120.056 75 965 bom main 148 133 P_____O_____P_ SH041996 -18.6031 120.083 55 0 -18.4000 120.000 40 75 965 4.50000 134 12 6 5 -18.6031 120.083 TC 55 6 182
1995348S15135 1996 97 SI WA GERTIE 1995-12-19 15:00:00 TS -18.7288 120.051 main 128 118 P_____P_____P_ SH041996 -18.7999 120.090 55 0 -18.5866 119.974 40 75 965 134 -18.7999 120.090 TC 55 6 0
1995348S15135 1996 97 SI WA GERTIE 1995-12-19 16:00:00 TS -18.8316 120.076 75 965 bom main 118 94 P_____O_____P_ SH041996 -18.8975 120.113 55 0 -18.7000 120.000 40 75 965 4.50000 134 12 6 5 -18.8975 120.113 TC 55 7 154
1995348S15135 1996 97 SI WA GERTIE 1995-12-19 18:00:00 TS -19.0564 120.220 main 84 69 O_____P_____O_ jtwc_sh SH041996 -19.1000 120.200 55 0 -18.9692 120.261 40 75 965 134 -19.1000 120.200 TC 55 8 148
1995348S15135 1996 97 SI WA GERTIE 1995-12-19 19:00:00 TS -19.1740 120.302 75 965 bom main 69 45 P_____O_____P_ SH041996 -19.2109 120.253 55 0 -19.1000 120.400 40 75 965 4.50000 134 12 6 5 -19.2109 120.253 TC 55 8 148
1995348S15135 1996 97 SI WA GERTIE 1995-12-19 21:00:00 TS -19.3941 120.444 main 45 30 P_____P_____P_ SH041996 -19.4424 120.398 57 0 -19.2975 120.536 40 75 965 134 -19.4424 120.398 TC 57 8 148
1995348S15135 1996 97 SI WA GERTIE 1995-12-19 22:00:00 TS -19.5074 120.525 75 965 bom main 30 0 P_____O_____P_ SH041996 -19.5612 120.488 58 0 -19.4000 120.600 40 75 965 4.50000 134 12 6 5 -19.5612 120.488 TC 58 9 143
1995348S15135 1996 97 SI WA GERTIE 1995-12-20 00:00:00 TS -19.7564 120.732 main 0 0 O_____P_____O_ jtwc_sh SH041996 -19.8000 120.700 60 0 -19.6691 120.795 40 75 965 134 -19.8000 120.700 TC 60 10 141
1995348S15135 1996 97 SI WA GERTIE 1995-12-20 01:00:00 TS -19.8778 120.841 75 965 bom main 0 0 P_____O_____P_ SH041996 -19.9166 120.811 60 0 -19.8000 120.900 40 75 965 4.50000 134 11 6 5 -19.9166 120.811 TC 60 9 136
1995348S15135 1996 97 SI WA GERTIE 1995-12-20 03:00:00 TS -20.0991 121.078 main 0 0 P_____P_____P_ SH041996 -20.1499 121.063 62 0 -19.9975 121.108 40 68 968 134 -20.1499 121.063 TC 60 10 135
1995348S15135 1996 97 SI WA GERTIE 1995-12-20 04:00:00 TS -20.2111 121.201 65 970 bom main 0 0 P_____O_____P_ SH041996 -20.2666 121.201 63 0 -20.1000 121.200 40 65 970 134 6 5 -20.2666 121.201 TC 60 10 136
1995348S15135 1996 97 SI WA GERTIE 1995-12-20 06:00:00 TS -20.4537 121.438 main 0 0 O_____P_____O_ jtwc_sh SH041996 -20.5000 121.500 65 1 -20.3612 121.315 40 61 970 116 -20.5000 121.500 TC 60 10 137
1995348S15135 1996 97 SI WA GERTIE 1995-12-20 07:00:00 TS -20.5742 121.567 60 970 bom main 0 0 P_____O_____P_ SH041996 -20.6114 121.650 66 1 -20.5000 121.400 30 60 970 107 4 5 -20.6114 121.650 TC 60 11 131
1995348S15135 1996 97 SI WA GERTIE 1995-12-20 09:00:00 TS -20.8121 121.886 main 0 0 P_____P_____P_ SH041996 -20.8348 121.970 70 1 -20.7667 121.717 30 56 973 107 -20.8348 121.970 TC 60 12 128
1995348S15135 1996 97 SI WA GERTIE 1995-12-20 10:00:00 TS -20.9338 122.060 55 975 bom main 0 0 P_____O_____P_ SH041996 -20.9507 122.140 71 1 -20.9000 121.900 30 55 975 107 4 5 -20.9507 122.140 TC 60 12 127
1995348S15135 1996 97 SI WA GERTIE 1995-12-20 12:00:00 TS -21.1862 122.411 main 0 0 O_____P_____O_ jtwc_sh SH041996 -21.2000 122.500 75 1 -21.1587 122.233 30 51 978 107 -21.2000 122.500 TC 60 13 128
1995348S15135 1996 97 SI WA GERTIE 1995-12-20 13:00:00 TS -21.3239 122.589 50 980 bom main 0 0 P_____O_____P_ SH041996 -21.3359 122.683 73 1 -21.3000 122.400 30 50 980 107 4 5 -21.3359 122.683 TC 60 14 131
1995348S15135 1996 97 SI WA GERTIE 1995-12-20 15:00:00 TS -21.6301 122.955 main 0 0 P_____P_____P_ SH041996 -21.6273 123.070 70 1 -21.6357 122.725 30 46 983 107 -21.6273 123.070 TC 60 14 132
1995348S15135 1996 97 SI WA GERTIE 1995-12-20 16:00:00 TS -21.7873 123.149 45 985 bom main 0 0 P_____O_____P_ SH041996 -21.7810 123.274 68 1 -21.8000 122.900 30 45 985 107 4 5 -21.7810 123.274 TC 60 15 129
1995348S15135 1996 97 SI WA GERTIE 1995-12-20 18:00:00 TS -22.0906 123.557 main 0 0 O_____P_____O_ jtwc_sh SH041996 -22.1000 123.700 65 1 -22.0719 123.271 30 41 988 107 -22.1000 123.700 TC 60 15 128
1995348S15135 1996 97 SI WA GERTIE 1995-12-20 19:00:00 TS -22.2405 123.774 40 990 bom main 0 0 P_____O_____P_ SH041996 -22.2607 123.912 63 0 -22.2000 123.500 30 40 990 107 4 5 -22.2607 123.912 TC 59 16 125
1995348S15135 1996 97 SI WA GERTIE 1995-12-20 21:00:00 TS -22.5476 124.268 main 0 0 P_____P_____P_ SH041996 -22.5920 124.356 60 0 -22.4588 124.092 30 36 990 107 -22.5920 124.356 TC 57 17 124
1995348S15135 1996 97 SI WA GERTIE 1995-12-20 22:00:00 TS -22.7071 124.528 35 990 bom main 0 0 P_____O_____P_ SH041996 -22.7607 124.591 58 0 -22.6000 124.400 30 35 990 107 4 5 -22.7607 124.591 TC 56 17 125
1995348S15135 1996 97 SI WA GERTIE 1995-12-21 00:00:00 TS -23.0452 125.038 main 0 0 O_____P_____O_ jtwc_sh SH041996 -23.1000 125.100 55 0 -22.9355 124.915 30 31 990 107 -23.1000 125.100 TC 55 18 125
1995348S15135 1996 97 SI WA GERTIE 1995-12-21 01:00:00 TS -23.2163 125.315 30 990 bom main 0 0 P_____O_____P_ SH041996 -23.2744 125.372 54 0 -23.1000 125.200 20 30 990 107 3 5 -23.2744 125.372 TC 54 19 121
1995348S15135 1996 97 SI WA GERTIE 1995-12-21 03:00:00 TS -23.5388 125.945 main 0 0 P_____P_____P_ SH041996 -23.6222 125.955 52 0 -23.3722 125.925 20 30 990 107 -23.6222 125.955 TC 52 20 118
1995348S15135 1996 97 SI WA GERTIE 1995-12-21 04:00:00 TS -23.6934 126.275 30 990 bom main 0 0 P_____O_____P_ SH041996 -23.7900 126.263 51 0 -23.5000 126.300 80 30 990 107 3 5 -23.7900 126.263 TC 51 20 116
1995348S15135 1996 97 SI WA GERTIE 1995-12-21 06:00:00 TS -23.9862 126.927 main 0 0 O_____P_____O_ jtwc_sh SH041996 -24.1000 126.900 50 0 -23.7586 126.980 80 30 990 107 -24.1000 126.900 TC 50 20 116
1995348S15135 1996 97 SI WA GERTIE 1995-12-21 07:00:00 TS -24.1188 127.245 30 990 bom main 0 0 P_____O_____P_ SH041996 -24.2282 127.217 46 0 -23.9000 127.300 80 30 990 107 3 5 -24.2282 127.217 TC 46 19 115
1995348S15135 1996 97 SI WA GERTIE 1995-12-21 09:00:00 TS -24.3857 127.880 main 0 0 P_____P_____P_ SH041996 -24.4568 127.871 40 0 -24.2435 127.898 80 30 990 107 -24.4568 127.871 TC 40 19 114
1995348S15135 1996 97 SI WA GERTIE 1995-12-21 10:00:00 TS -24.5110 128.205 30 990 bom main 0 0 P_____O_____P_ SH041996 -24.5665 128.208 36 0 -24.4000 128.200 80 30 990 107 3 5 -24.5665 128.208 TC 36 20 111
1995348S15135 1996 97 SI WA GERTIE 1995-12-21 12:00:00 TS -24.7317 128.887 main 0 0 O_____P_____O_ jtwc_sh SH041996 -24.8000 128.900 30 -1 -24.5950 128.862 80 30 990 107 -24.8000 128.900 TC 30 20 110
1995348S15135 1996 97 SI WA GERTIE 1995-12-21 13:00:00 TS -24.8546 129.237 30 990 bom main 0 0 P_____O_____P_ SH041996 -24.9320 129.256 29 -1 -24.7000 129.200 80 30 990 107 3 5 -24.9320 129.256 TC 29 20 114
1995348S15135 1996 97 SI WA GERTIE 1995-12-21 15:00:00 TS -25.1401 129.917 main 0 0 P_____P_____P_ SH041996 -25.2243 129.983 27 -1 -25.0139 129.820 80 30 990 107 -25.2243 129.983 TC 27 21 115
1995348S15135 1996 97 SI WA GERTIE 1995-12-21 16:00:00 TS -25.2901 130.276 30 990 bom main 0 0 P_____O_____P_ SH041996 -25.3801 130.352 26 -1 -25.2000 130.200 80 30 990 107 3 5 -25.3801 130.352 TC 26 25 113
1995348S15135 1996 97 SI WA GERTIE 1995-12-21 18:00:00 TS -25.6351 131.189 main 0 0 O_____P_____O_ jtwc_sh SH041996 -25.7000 131.100 25 -1 -25.6026 131.234 80 30 991 107 -25.7000 131.100 TC 25 29 110
1995348S15135 1996 97 SI WA GERTIE 1995-12-21 19:00:00 NR -25.8000 131.800 30 992 bom main 0 0 ______O_______ SH041996 -1 -25.8000 131.800 80 30 992 107 3 5 TC 32 109
1995348S15135 1996 97 SI WA GERTIE 1995-12-21 21:00:00 NR -26.1544 132.883 main 0 0 ______P_______ SH041996 -1 -26.1544 132.883 80 30 992 107 TC 30 109
1995348S15135 1996 97 SI WA GERTIE 1995-12-21 22:00:00 NR -26.3000 133.400 30 992 bom main 0 0 ______O_______ SH041996 -1 -26.3000 133.400 80 30 992 107 3 5 TC 27 106
1995348S15135 1996 97 SI WA GERTIE 1995-12-22 00:00:00 NR -26.5185 134.342 main 0 0 ______P_______ -1 -26.5185 134.342 80 30 993 107 26 103
1995348S15135 1996 97 SI WA GERTIE 1995-12-22 01:00:00 NR -26.6000 134.800 30 994 bom main 0 0 ______O_______ -1 -26.6000 134.800 80 30 994 107 3 5 26 102
1995348S15135 1996 97 SP EA GERTIE 1995-12-22 03:00:00 NR -26.7793 135.745 main 0 0 ______P_______ -1 -26.7793 135.745 80 30 994 107 26 100
1995348S15135 1996 97 SP EA GERTIE 1995-12-22 06:00:00 NR -26.9904 137.203 main 0 0 ______P_______ -1 -26.9904 137.203 80 30 994 107 27 97
1995348S15135 1996 97 SP EA GERTIE 1995-12-22 09:00:00 NR -27.0962 138.746 main 0 0 ______P_______ -1 -27.0962 138.746 80 30 995 107 29 91
1995348S15135 1996 97 SP EA GERTIE 1995-12-22 12:00:00 NR -27.0543 140.411 main 0 0 ______P_______ -1 -27.0543 140.411 80 30 995 107 30 87
1995348S15135 1996 97 SP EA GERTIE 1995-12-22 13:00:00 NR -27.0000 141.000 30 996 bom main 0 0 ______O_______ -1 -27.0000 141.000 80 30 996 107 3 5 35 79
1995348S15135 1996 97 SP EA GERTIE 1995-12-22 15:00:00 NR -26.7325 142.325 main 0 0 ______P_______ -1 -26.7325 142.325 80 30 996 107 38 75
1995348S15135 1996 97 SP EA GERTIE 1995-12-22 18:00:00 NR -26.1746 144.421 main 0 0 ______P_______ -1 -26.1746 144.421 80 30 996 107 39 73
1995348S15135 1996 97 SP EA GERTIE 1995-12-22 21:00:00 NR -25.5733 146.502 main 0 0 ______P_______ -1 -25.5733 146.502 80 30 996 107 38 73
1995348S15135 1996 97 SP EA GERTIE 1995-12-23 00:00:00 NR -25.0992 148.421 main 0 0 ______P_______ -1 -25.0992 148.421 80 30 996 107 35 76
1995348S15135 1996 97 SP EA GERTIE 1995-12-23 01:00:00 NR -25.0000 149.000 30 996 bom main 0 0 ______O_______ -1 -25.0000 149.000 80 30 996 107 3 5 29 89
1995348S15135 1996 97 SP EA GERTIE 1995-12-23 03:00:00 NR -25.0662 150.040 main 0 0 ______P_______ -1 -25.0662 150.040 80 30 995 107 27 99
1995348S15135 1996 97 SP EA GERTIE 1995-12-23 06:00:00 NR -25.3643 151.424 main 0 0 ______P_______ -1 -25.3643 151.424 80 32 995 107 24 106
1995348S15135 1996 97 SP EA GERTIE 1995-12-23 09:00:00 NR -25.7321 152.629 main 0 0 ______P_______ -1 -25.7321 152.629 80 33 994 107 21 107
1995348S15135 1996 97 SP EA GERTIE 1995-12-23 12:00:00 NR -25.9783 153.680 main 59 59 ______P_______ -1 -25.9783 153.680 80 34 994 107 19 102
1995348S15135 1996 97 SP EA GERTIE 1995-12-23 13:00:00 NR -26.0000 154.000 35 994 bom main 89 99 ______O_______ -1 -26.0000 154.000 30 35 994 107 3 5 16 77
1995348S15135 1996 97 SP EA GERTIE 1995-12-23 15:00:00 NR -25.8035 154.540 main 134 134 ______P_______ -1 -25.8035 154.540 30 35 993 111 15 58
1995348S15135 1996 97 SP EA GERTIE 1995-12-23 18:00:00 NR -25.3238 155.217 main 184 184 ______P_______ -1 -25.3238 155.217 30 37 992 118 16 49
1995348S15135 1996 97 SP EA GERTIE 1995-12-23 21:00:00 NR -24.7361 155.876 main 254 254 ______P_______ -1 -24.7361 155.876 30 38 991 124 18 49
1995348S15135 1996 97 SP EA GERTIE 1995-12-24 00:00:00 NR -24.1653 156.675 main 345 345 ______P_______ -1 -24.1653 156.675 30 39 990 131 19 54
1995348S15135 1996 97 SP EA GERTIE 1995-12-24 01:00:00 NR -24.0000 157.000 40 990 bom main 380 390 ______O_______ -1 -24.0000 157.000 30 40 990 134 3 5 22 66
1995348S15135 1996 97 SP EA GERTIE 1995-12-24 03:00:00 NR -23.7247 157.761 main 468 468 ______P_______ -1 -23.7247 157.761 30 40 990 134 25 74
1995348S15135 1996 97 SP EA GERTIE 1995-12-24 06:00:00 NR -23.4262 159.139 main 604 474 ______P_______ -1 -23.4262 159.139 30 40 990 134 28 79
1995348S15135 1996 97 SP MM GERTIE 1995-12-24 09:00:00 NR -23.2189 160.723 main 466 328 ______P_______ -1 -23.2189 160.723 30 40 990 134 30 83
1995348S15135 1996 97 SP MM GERTIE 1995-12-24 12:00:00 NR -23.0537 162.424 main 319 265 ______P_______ -1 -23.0537 162.424 30 40 990 134 32 84
1995348S15135 1996 97 SP MM GERTIE 1995-12-24 13:00:00 NR -23.0000 163.000 40 990 bom main 265 ______O_______ -1 -23.0000 163.000 30 40 990 134 3 5 32 84

IBTrACS Databaseについて

本データベースは、米国NOAAが公開する1842年以降の世界の熱帯低気圧のベストトラックデータアーカイブInternational Best Track Archive for Climate Stewardship (IBTrACS)を、ウェブで閲覧しやすい形式に変換したものです。

最終更新日:2021-12-01